Time;durP1;ratioP1;P1;durP2;ratioP2;P2;SDS_P1;SDS_P2;PMS_P1;PMS_P2;Temp;Humidity;BMP_temperature;BMP_pressure;BME280_temperature;BME280_humidity;BME280_pressure;Samples;Min_cycle;Max_cycle;Signal;HPM_P1;HPM_P2
2024/03/16 00:00:46;;;;;;;1.40;1.30;;;7.80;99.90;;;;;;5045569;28;20174;-60
2024/03/16 00:03:12;;;;;;;1.33;1.17;;;7.80;99.90;;;;;;5043567;28;20167;-59
2024/03/16 00:05:38;;;;;;;0.90;0.90;;;7.80;99.90;;;;;;5046809;28;20203;-59
2024/03/16 00:08:04;;;;;;;2.10;0.97;;;7.80;99.90;;;;;;5024910;28;20190;-61
2024/03/16 00:10:30;;;;;;;7.60;0.90;;;7.80;99.90;;;;;;5044467;28;20457;-60
2024/03/16 00:12:56;;;;;;;1.10;1.00;;;7.70;99.90;;;;;;5045779;28;20398;-60
2024/03/16 00:15:21;;;;;;;1.10;1.00;;;7.70;99.90;;;;;;5047354;28;20466;-60
2024/03/16 00:17:47;;;;;;;1.17;1.07;;;7.70;99.90;;;;;;5045442;28;20299;-61
2024/03/16 00:20:13;;;;;;;1.70;0.90;;;7.70;99.90;;;;;;5043250;28;20541;-59
2024/03/16 00:22:39;;;;;;;3.23;1.07;;;7.70;99.90;;;;;;5046380;28;20205;-60
2024/03/16 00:25:06;;;;;;;1.10;1.00;;;7.70;99.90;;;;;;5044936;28;20473;-60
2024/03/16 00:27:33;;;;;;;1.63;1.20;;;7.60;99.90;;;;;;5046110;28;20205;-60
2024/03/16 00:29:59;;;;;;;1.47;1.37;;;7.60;99.90;;;;;;5049216;28;20457;-59
2024/03/16 00:32:24;;;;;;;4.23;1.10;;;7.60;99.90;;;;;;5047266;28;20460;-60
2024/03/16 00:34:50;;;;;;;1.10;1.00;;;7.60;99.90;;;;;;5048551;28;20475;-61
2024/03/16 00:37:16;;;;;;;0.93;0.87;;;7.60;99.90;;;;;;5046028;28;20187;-60
2024/03/16 00:39:42;;;;;;;2.60;0.90;;;7.60;99.90;;;;;;5048591;28;20171;-61
2024/03/16 00:42:10;;;;;;;0.87;0.87;;;7.60;99.90;;;;;;5049057;28;20204;-60
2024/03/16 00:44:36;;;;;;;0.83;0.83;;;7.60;99.90;;;;;;5049705;28;20270;-60
2024/03/16 00:47:02;;;;;;;1.20;1.10;;;7.60;99.90;;;;;;5049086;28;20417;-61
2024/03/16 00:49:28;;;;;;;1.90;0.90;;;7.60;99.90;;;;;;5048790;28;20445;-58
2024/03/16 00:51:53;;;;;;;1.07;0.90;;;7.60;99.90;;;;;;5046568;28;20183;-60
2024/03/16 00:54:19;;;;;;;0.90;0.90;;;7.60;99.90;;;;;;5048004;28;20664;-60
2024/03/16 00:56:46;;;;;;;0.90;0.90;;;7.60;99.90;;;;;;5046898;28;20175;-61
2024/03/16 00:59:12;;;;;;;1.00;1.00;;;7.60;99.90;;;;;;5046369;28;20191;-60
2024/03/16 01:01:38;;;;;;;1.43;1.00;;;7.60;99.90;;;;;;5047888;28;20413;-61
2024/03/16 01:04:04;;;;;;;0.90;0.90;;;7.60;99.90;;;;;;5048823;28;20425;-60
2024/03/16 01:06:30;;;;;;;1.30;1.20;;;7.60;99.90;;;;;;5047702;28;20729;-60
2024/03/16 01:08:56;;;;;;;1.00;1.00;;;7.60;99.90;;;;;;5048189;28;20564;-60
2024/03/16 01:11:23;;;;;;;1.10;1.00;;;7.60;99.90;;;;;;5045279;28;20451;-60
2024/03/16 01:13:52;;;;;;;1.30;1.20;;;7.60;99.90;;;;;;5047986;28;20418;-62
2024/03/16 01:16:18;;;;;;;0.90;0.90;;;7.60;99.90;;;;;;5049428;28;20820;-60
2024/03/16 01:18:44;;;;;;;1.00;1.00;;;7.60;99.90;;;;;;5047524;28;21145;-60
2024/03/16 01:21:10;;;;;;;1.10;1.10;;;7.60;99.90;;;;;;5047091;28;20508;-60
2024/03/16 01:23:37;;;;;;;2.20;2.00;;;7.60;99.90;;;;;;5048626;28;20178;-60
2024/03/16 01:26:07;;;;;;;1.90;1.80;;;7.60;99.90;;;;;;5048470;28;20770;-60
2024/03/16 01:28:33;;;;;;;1.70;1.43;;;7.60;99.90;;;;;;5045164;28;20484;-61
2024/03/16 01:30:59;;;;;;;2.20;1.20;;;7.60;99.90;;;;;;5030352;28;20449;-60
2024/03/16 01:33:28;;;;;;;1.10;1.10;;;7.60;99.90;;;;;;5047953;28;20507;-60
2024/03/16 01:35:54;;;;;;;1.07;1.07;;;7.60;99.90;;;;;;5046992;28;20433;-61
2024/03/16 01:38:20;;;;;;;1.30;1.20;;;7.60;99.90;;;;;;5044814;28;20548;-61
2024/03/16 01:40:46;;;;;;;1.07;1.07;;;7.60;99.90;;;;;;5013889;28;20574;-60
2024/03/16 01:43:13;;;;;;;1.17;1.07;;;7.70;99.90;;;;;;5049652;28;20916;-60
2024/03/16 01:45:40;;;;;;;2.60;1.20;;;7.70;99.90;;;;;;5046317;28;20197;-60
2024/03/16 01:48:09;;;;;;;1.27;1.20;;;7.70;99.90;;;;;;5047804;28;20450;-60
2024/03/16 01:50:38;;;;;;;1.23;1.10;;;7.70;99.90;;;;;;5046540;28;20465;-60
2024/03/16 01:53:05;;;;;;;1.30;1.20;;;7.70;99.90;;;;;;5047853;28;20425;-62
2024/03/16 01:55:35;;;;;;;1.60;1.50;;;7.70;99.90;;;;;;5046622;28;20536;-60
2024/03/16 01:58:04;;;;;;;1.60;1.13;;;7.70;99.90;;;;;;5044576;28;20833;-61
2024/03/16 02:00:30;;;;;;;2.13;1.50;;;7.70;99.90;;;;;;5045740;28;20448;-60
2024/03/16 02:02:55;;;;;;;1.33;1.23;;;7.70;99.90;;;;;;5047183;28;20429;-60
2024/03/16 02:05:21;;;;;;;1.40;1.30;;;7.70;99.90;;;;;;5048305;28;20421;-60
2024/03/16 02:07:50;;;;;;;2.93;1.30;;;7.70;99.90;;;;;;5045729;28;20199;-60
2024/03/16 02:10:17;;;;;;;1.20;1.10;;;7.70;99.90;;;;;;5041989;28;20313;-62
2024/03/16 02:12:43;;;;;;;1.30;1.20;;;7.70;99.90;;;;;;5047673;28;20417;-60
2024/03/16 02:15:09;;;;;;;1.00;1.00;;;7.70;99.90;;;;;;5044383;28;20919;-60
2024/03/16 02:17:36;;;;;;;1.80;1.17;;;7.80;99.90;;;;;;5044926;28;20195;-61
2024/03/16 02:20:09;;;;;;;1.10;1.10;;;7.80;99.90;;;;;;5041535;28;20414;-60
2024/03/16 02:22:35;;;;;;;1.47;1.37;;;7.80;99.90;;;;;;5044327;28;20787;-61
2024/03/16 02:25:01;;;;;;;1.60;1.50;;;7.80;99.90;;;;;;5046960;28;20406;-61
2024/03/16 02:27:27;;;;;;;1.23;1.20;;;7.80;99.90;;;;;;5046509;28;20473;-60
2024/03/16 02:29:52;;;;;;;1.40;1.30;;;7.80;99.90;;;;;;5048256;28;21109;-60
2024/03/16 02:32:18;;;;;;;2.83;1.57;;;7.80;99.90;;;;;;5048034;28;20171;-60
2024/03/16 02:34:44;;;;;;;1.63;1.27;;;7.80;99.90;;;;;;5043219;28;20290;-60
2024/03/16 02:37:10;;;;;;;1.30;1.20;;;7.80;99.90;;;;;;5043547;28;20516;-60
2024/03/16 02:39:35;;;;;;;1.23;1.23;;;7.80;99.90;;;;;;5047849;28;20187;-61
2024/03/16 02:42:02;;;;;;;1.33;1.30;;;7.80;99.90;;;;;;5045258;28;20182;-60
2024/03/16 02:44:31;;;;;;;1.57;1.47;;;7.80;99.90;;;;;;5048099;28;20184;-60
2024/03/16 02:47:00;;;;;;;1.40;1.30;;;7.90;99.90;;;;;;5045134;28;20433;-60
2024/03/16 02:49:26;;;;;;;1.70;1.60;;;7.90;99.90;;;;;;5043971;28;20945;-60
2024/03/16 02:51:55;;;;;;;1.60;1.50;;;7.90;99.90;;;;;;5044108;28;20421;-60
2024/03/16 02:54:20;;;;;;;2.07;1.87;;;7.80;99.90;;;;;;5047670;28;20167;-60
2024/03/16 02:56:46;;;;;;;4.33;1.87;;;7.90;99.90;;;;;;5041456;28;20464;-60
2024/03/16 02:59:12;;;;;;;2.13;1.93;;;7.80;99.90;;;;;;5044442;28;20228;-61
2024/03/16 03:01:38;;;;;;;1.80;1.70;;;7.80;99.90;;;;;;5042273;28;20654;-60
2024/03/16 03:04:05;;;;;;;1.60;1.50;;;7.80;99.90;;;;;;5044501;28;20429;-61
2024/03/16 03:06:32;;;;;;;1.97;1.87;;;7.80;99.90;;;;;;5043188;28;20441;-60
2024/03/16 03:08:58;;;;;;;1.47;1.37;;;7.80;99.90;;;;;;5043594;28;20523;-60
2024/03/16 03:11:25;;;;;;;1.60;1.50;;;7.90;99.90;;;;;;5044849;28;20425;-60
2024/03/16 03:13:51;;;;;;;1.30;1.20;;;7.90;99.90;;;;;;5039087;28;20430;-60
2024/03/16 03:16:20;;;;;;;1.30;1.20;;;7.90;99.90;;;;;;5045968;28;20774;-60
2024/03/16 03:18:50;;;;;;;1.60;1.50;;;7.90;99.90;;;;;;5042432;28;20203;-60
2024/03/16 03:21:17;;;;;;;1.77;1.67;;;7.90;99.90;;;;;;5023337;28;20487;-62
2024/03/16 03:23:43;;;;;;;1.63;1.53;;;7.90;99.90;;;;;;5043479;28;20444;-60
2024/03/16 03:26:09;;;;;;;1.50;1.40;;;7.90;99.90;;;;;;5045106;28;20422;-61
2024/03/16 03:28:36;;;;;;;1.50;1.40;;;7.90;99.90;;;;;;5044223;28;20272;-60
2024/03/16 03:31:02;;;;;;;3.57;1.50;;;7.90;99.90;;;;;;5043565;28;20499;-60
2024/03/16 03:33:28;;;;;;;1.50;1.40;;;7.90;99.90;;;;;;5046164;28;20420;-60
2024/03/16 03:35:54;;;;;;;1.93;1.73;;;7.90;99.90;;;;;;5045574;28;20504;-60
2024/03/16 03:38:19;;;;;;;1.63;1.53;;;7.90;99.90;;;;;;5043636;28;20191;-61
2024/03/16 03:40:45;;;;;;;2.00;1.60;;;7.90;99.90;;;;;;5045982;28;20598;-60
2024/03/16 03:43:19;;;;;;;1.30;1.20;;;7.90;99.90;;;;;;5045950;28;20171;-60
2024/03/16 03:50:55;;;;;;;1.90;1.73;;;7.90;99.90;;;;;;5044314;28;20712;-60
2024/03/16 03:53:22;;;;;;;2.43;1.30;;;7.90;99.90;;;;;;5040822;28;20425;-59
2024/03/16 03:55:48;;;;;;;2.70;1.67;;;8.00;99.90;;;;;;5045989;28;20430;-60
2024/03/16 03:58:14;;;;;;;1.13;1.13;;;8.00;99.90;;;;;;5046306;28;20796;-61
2024/03/16 04:00:43;;;;;;;1.87;1.30;;;8.00;99.90;;;;;;5043788;28;20448;-61
2024/03/16 04:03:08;;;;;;;1.87;1.50;;;8.00;99.90;;;;;;5045364;28;20194;-60
2024/03/16 04:05:34;;;;;;;1.40;1.30;;;8.00;99.90;;;;;;5050064;28;20433;-61
2024/03/16 04:08:00;;;;;;;1.77;1.40;;;8.00;99.90;;;;;;5048002;28;20293;-60
2024/03/16 04:10:26;;;;;;;1.40;1.30;;;8.00;99.90;;;;;;5049668;28;20588;-60
2024/03/16 04:12:52;;;;;;;2.60;1.40;;;8.00;99.90;;;;;;5049788;28;20444;-60
2024/03/16 04:15:17;;;;;;;2.17;1.97;;;8.00;99.90;;;;;;5050554;28;20171;-61
2024/03/16 04:17:43;;;;;;;1.40;1.30;;;8.00;99.90;;;;;;5045937;28;20749;-61
2024/03/16 04:20:12;;;;;;;1.50;1.40;;;8.00;99.90;;;;;;5048314;28;20673;-60
2024/03/16 04:22:41;;;;;;;1.50;1.40;;;8.00;99.90;;;;;;5050551;28;20183;-60
2024/03/16 04:25:09;;;;;;;2.57;1.60;;;8.00;99.90;;;;;;5049293;28;20429;-60
2024/03/16 04:27:35;;;;;;;1.83;1.73;;;8.00;99.90;;;;;;5049704;28;20462;-61
2024/03/16 04:30:01;;;;;;;1.77;1.67;;;8.00;99.90;;;;;;5049298;28;20461;-60
2024/03/16 04:32:27;;;;;;;1.50;1.40;;;8.00;99.90;;;;;;5049806;28;20457;-60
2024/03/16 04:34:55;;;;;;;1.67;1.40;;;8.00;99.90;;;;;;5050072;28;20460;-61
2024/03/16 04:37:21;;;;;;;1.43;1.10;;;8.00;99.90;;;;;;5046471;28;20222;-60
2024/03/16 04:39:47;;;;;;;1.10;1.10;;;8.00;99.90;;;;;;5050367;28;20944;-60
2024/03/16 04:42:14;;;;;;;2.00;1.07;;;8.00;99.90;;;;;;5050311;28;20182;-60
2024/03/16 04:44:40;;;;;;;1.40;1.30;;;8.00;99.90;;;;;;5049402;28;20536;-60
2024/03/16 04:47:05;;;;;;;1.13;1.03;;;8.00;99.90;;;;;;5047721;28;20417;-60
2024/03/16 04:49:31;;;;;;;1.10;1.10;;;7.90;99.90;;;;;;5044636;28;20507;-60
2024/03/16 04:51:58;;;;;;;2.63;1.20;;;7.90;99.90;;;;;;5046733;28;20221;-60
2024/03/16 04:54:23;;;;;;;1.17;1.07;;;7.90;99.90;;;;;;5048381;28;20171;-60
2024/03/16 04:56:49;;;;;;;1.43;1.33;;;7.90;99.90;;;;;;5048282;28;20417;-62
2024/03/16 04:59:15;;;;;;;2.23;1.50;;;7.90;99.90;;;;;;5046103;28;20195;-61
2024/03/16 05:01:40;;;;;;;1.00;1.00;;;7.90;99.90;;;;;;5045277;28;21443;-60
2024/03/16 05:04:07;;;;;;;1.70;1.50;;;7.90;99.90;;;;;;5050023;28;20556;-60
2024/03/16 05:06:34;;;;;;;1.20;1.10;;;7.80;99.90;;;;;;5048371;28;20182;-61
2024/03/16 05:09:05;;;;;;;1.07;1.00;;;7.80;99.90;;;;;;5030192;28;20548;-60
2024/03/16 05:11:30;;;;;;;1.00;1.00;;;7.80;99.90;;;;;;5046587;28;20421;-60
2024/03/16 05:13:58;;;;;;;1.23;0.90;;;7.80;99.90;;;;;;5047150;28;20412;-61
2024/03/16 05:16:23;;;;;;;1.23;1.10;;;7.80;99.90;;;;;;5048103;28;20198;-61
2024/03/16 05:18:49;;;;;;;1.40;1.30;;;7.80;99.90;;;;;;5041138;28;20507;-61
2024/03/16 05:21:15;;;;;;;1.80;1.47;;;7.90;99.90;;;;;;5042140;28;20533;-60
2024/03/16 05:23:45;;;;;;;1.20;1.10;;;7.80;99.90;;;;;;5048052;28;20538;-61
2024/03/16 05:26:11;;;;;;;1.50;1.40;;;7.90;99.90;;;;;;5044138;28;20167;-59
2024/03/16 05:28:38;;;;;;;1.20;1.10;;;7.90;99.90;;;;;;5048756;28;20540;-60
2024/03/16 05:31:04;;;;;;;0.90;0.90;;;7.90;99.90;;;;;;5048163;28;20440;-61
2024/03/16 05:33:30;;;;;;;1.90;1.20;;;7.90;99.90;;;;;;5049437;28;20990;-60
2024/03/16 05:35:55;;;;;;;1.00;1.00;;;7.90;99.90;;;;;;5044958;28;20175;-61
2024/03/16 05:38:23;;;;;;;1.30;1.20;;;7.90;99.90;;;;;;5047284;28;20182;-60
2024/03/16 05:40:49;;;;;;;2.70;1.30;;;7.90;99.90;;;;;;5047400;28;20210;-60
2024/03/16 05:43:14;;;;;;;1.83;1.50;;;7.90;99.90;;;;;;5046529;28;20516;-60
2024/03/16 05:45:40;;;;;;;2.37;1.73;;;7.90;99.90;;;;;;5048831;28;20193;-61
2024/03/16 05:48:06;;;;;;;2.70;1.53;;;7.90;99.90;;;;;;5048177;28;20229;-61
2024/03/16 05:50:32;;;;;;;1.80;1.70;;;8.00;99.90;;;;;;5047357;28;20201;-61
2024/03/16 05:52:57;;;;;;;1.93;1.70;;;8.00;99.90;;;;;;5045296;28;20175;-61
2024/03/16 05:55:23;;;;;;;3.07;1.90;;;8.00;99.90;;;;;;5048274;28;20270;-61
2024/03/16 05:57:48;;;;;;;2.40;1.40;;;8.00;99.90;;;;;;5047833;28;20195;-62
2024/03/16 06:00:14;;;;;;;1.60;1.50;;;8.00;99.90;;;;;;5047613;28;20617;-60
2024/03/16 06:02:40;;;;;;;1.77;1.67;;;8.00;99.90;;;;;;5047483;28;20174;-61
2024/03/16 06:05:07;;;;;;;1.67;1.57;;;8.00;99.90;;;;;;5045827;28;20662;-60
2024/03/16 06:07:33;;;;;;;1.50;1.40;;;8.00;99.90;;;;;;5047450;28;20709;-62
2024/03/16 06:09:58;;;;;;;3.77;1.67;;;8.10;99.90;;;;;;5046626;28;20514;-61
2024/03/16 06:12:27;;;;;;;2.40;2.20;;;8.10;99.90;;;;;;5048207;28;20171;-61
2024/03/16 06:14:53;;;;;;;2.00;1.87;;;8.10;99.90;;;;;;5046717;28;20526;-61
2024/03/16 06:17:19;;;;;;;7.30;1.93;;;8.10;99.90;;;;;;5044068;28;20453;-60
2024/03/16 06:19:44;;;;;;;2.20;1.97;;;8.20;99.90;;;;;;5047332;28;20413;-61
2024/03/16 06:22:10;;;;;;;2.23;2.00;;;8.20;99.90;;;;;;5047419;28;20606;-60
2024/03/16 06:24:35;;;;;;;8.93;2.40;;;8.20;99.90;;;;;;5045424;28;20191;-61
2024/03/16 06:27:05;;;;;;;4.30;2.70;;;8.20;99.90;;;;;;5047005;28;20217;-62
2024/03/16 06:29:34;;;;;;;2.63;2.23;;;8.20;99.90;;;;;;5047596;28;20832;-61
2024/03/16 06:32:06;;;;;;;2.87;2.50;;;8.30;99.90;;;;;;5047869;28;20479;-60
2024/03/16 06:34:35;;;;;;;2.97;2.43;;;8.30;99.90;;;;;;5045776;28;20509;-61
2024/03/16 06:37:01;;;;;;;2.97;2.43;;;8.30;99.90;;;;;;5045347;28;20467;-61
2024/03/16 06:39:27;;;;;;;5.00;2.47;;;8.30;99.90;;;;;;5048354;28;20422;-61
2024/03/16 06:41:53;;;;;;;4.13;2.80;;;8.30;99.90;;;;;;5045138;28;20176;-61
2024/03/16 06:44:18;;;;;;;5.00;2.90;;;8.30;99.90;;;;;;5045978;28;20426;-61
2024/03/16 06:46:44;;;;;;;2.70;2.23;;;8.40;99.90;;;;;;5046274;28;20469;-60
2024/03/16 06:49:10;;;;;;;4.03;3.00;;;8.40;99.90;;;;;;5044711;28;20850;-63
2024/03/16 06:51:36;;;;;;;3.07;2.70;;;8.40;99.90;;;;;;5037227;28;20175;-59
2024/03/16 06:54:01;;;;;;;4.40;2.90;;;8.50;99.90;;;;;;5040785;28;20164;-59
2024/03/16 06:56:27;;;;;;;2.93;2.23;;;8.50;99.90;;;;;;5042866;28;20658;-61
2024/03/16 06:58:52;;;;;;;7.57;2.23;;;8.50;99.90;;;;;;5043753;28;20199;-61
2024/03/16 07:01:18;;;;;;;5.50;2.80;;;8.60;99.90;;;;;;5041865;28;20183;-60
2024/03/16 07:03:44;;;;;;;4.17;2.40;;;8.60;99.90;;;;;;5042376;28;20832;-61
2024/03/16 07:06:10;;;;;;;8.87;2.90;;;8.60;99.90;;;;;;5042235;28;20175;-62
2024/03/16 07:08:38;;;;;;;3.07;2.40;;;8.60;99.90;;;;;;5042322;28;20278;-62
2024/03/16 07:11:05;;;;;;;4.87;2.30;;;8.70;99.90;;;;;;5023795;28;20516;-62
2024/03/16 07:13:31;;;;;;;5.70;2.27;;;8.70;99.90;;;;;;5027087;28;20449;-61
2024/03/16 07:15:57;;;;;;;5.10;2.17;;;8.70;99.90;;;;;;5043573;28;20972;-61
2024/03/16 07:18:22;;;;;;;4.33;2.00;;;8.70;99.90;;;;;;5042906;28;20442;-61
2024/03/16 07:20:48;;;;;;;4.57;2.47;;;8.80;99.90;;;;;;5016813;28;20297;-61
2024/03/16 07:23:14;;;;;;;2.83;1.70;;;8.80;99.90;;;;;;5044529;28;20175;-63
2024/03/16 07:25:41;;;;;;;2.73;1.97;;;9.00;99.90;;;;;;5042816;28;20175;-61
2024/03/16 07:28:07;;;;;;;2.60;2.20;;;9.10;99.90;;;;;;5043155;28;20256;-61
2024/03/16 07:30:35;;;;;;;3.17;1.70;;;9.10;99.90;;;;;;5041098;28;20468;-63
2024/03/16 07:33:02;;;;;;;2.40;1.17;;;9.20;99.90;;;;;;5041875;28;20433;-61
2024/03/16 07:35:28;;;;;;;2.50;1.60;;;9.20;99.90;;;;;;5042397;28;20452;-61
2024/03/16 07:37:55;;;;;;;5.80;1.70;;;9.20;99.90;;;;;;5042623;28;20461;-62
2024/03/16 07:40:21;;;;;;;3.53;1.37;;;9.20;99.90;;;;;;5041418;28;20175;-63
2024/03/16 07:42:48;;;;;;;9.20;1.60;;;9.20;99.90;;;;;;5041565;28;20452;-63
2024/03/16 07:45:14;;;;;;;4.10;1.60;;;9.10;99.90;;;;;;5042653;28;20444;-61
2024/03/16 07:47:40;;;;;;;4.70;1.87;;;9.10;99.90;;;;;;5044436;28;20857;-60
2024/03/16 07:50:06;;;;;;;2.13;1.33;;;9.10;99.90;;;;;;5023037;28;20818;-62
2024/03/16 07:52:33;;;;;;;4.60;1.60;;;9.00;99.90;;;;;;5042325;28;20195;-63
2024/03/16 07:54:59;;;;;;;1.37;1.27;;;9.00;99.90;;;;;;5040321;28;20430;-61
2024/03/16 07:57:27;;;;;;;3.73;1.60;;;9.00;99.90;;;;;;5042247;28;20457;-61
2024/03/16 07:59:53;;;;;;;2.67;1.70;;;9.00;99.90;;;;;;5042007;28;20944;-60
2024/03/16 08:02:19;;;;;;;4.83;1.50;;;9.00;99.90;;;;;;5042110;28;20429;-63
2024/03/16 08:04:45;;;;;;;4.83;1.90;;;9.00;99.90;;;;;;5042829;28;20452;-62
2024/03/16 08:07:11;;;;;;;2.10;1.53;;;9.00;99.90;;;;;;5043404;28;20614;-61
2024/03/16 08:09:37;;;;;;;3.97;1.80;;;9.10;99.90;;;;;;5044483;28;20665;-62
2024/03/16 08:12:02;;;;;;;1.63;1.53;;;9.10;99.90;;;;;;5045444;28;20432;-62
2024/03/16 08:14:34;;;;;;;2.07;1.20;;;9.10;99.90;;;;;;5046964;28;20179;-63
2024/03/16 08:17:03;;;;;;;2.30;1.37;;;9.10;99.90;;;;;;5043165;28;20254;-61
2024/03/16 08:19:30;;;;;;;8.43;1.60;;;9.10;99.90;;;;;;5033682;28;20437;-61
2024/03/16 08:21:55;;;;;;;2.47;1.73;;;9.00;99.90;;;;;;5042683;28;20952;-61
2024/03/16 08:24:21;;;;;;;2.60;1.40;;;9.00;99.90;;;;;;5044698;28;20440;-62
2024/03/16 08:26:47;;;;;;;5.17;1.70;;;9.00;99.90;;;;;;5043219;28;20195;-61
2024/03/16 08:29:12;;;;;;;3.20;2.17;;;9.00;99.90;;;;;;5018240;28;22088;-61
2024/03/16 08:31:38;;;;;;;2.40;2.00;;;9.00;99.90;;;;;;5044685;28;20179;-62
2024/03/16 08:34:04;;;;;;;6.47;2.33;;;9.10;99.90;;;;;;5040867;28;20642;-61
2024/03/16 08:36:30;;;;;;;2.33;1.60;;;9.10;99.90;;;;;;5044928;28;20266;-62
2024/03/16 08:38:56;;;;;;;1.93;1.60;;;9.10;99.90;;;;;;5039255;28;20219;-61
2024/03/16 08:41:22;;;;;;;1.47;1.37;;;9.10;99.90;;;;;;5040393;28;20429;-61
2024/03/16 08:43:48;;;;;;;2.60;1.53;;;9.20;99.90;;;;;;5044997;28;21825;-62
2024/03/16 08:46:14;;;;;;;1.47;1.37;;;9.20;99.90;;;;;;5044719;28;20464;-61
2024/03/16 08:48:40;;;;;;;4.40;1.43;;;9.10;99.90;;;;;;5045222;28;20532;-60
2024/03/16 08:51:05;;;;;;;2.07;1.73;;;9.20;99.90;;;;;;5047535;28;21577;-62
2024/03/16 08:53:31;;;;;;;2.07;1.60;;;9.20;99.90;;;;;;5047406;28;20167;-60
2024/03/16 08:55:58;;;;;;;2.80;1.73;;;9.30;99.90;;;;;;5035907;28;20171;-61
2024/03/16 08:58:29;;;;;;;5.17;2.20;;;9.40;99.90;;;;;;5043729;28;21556;-61
2024/03/16 09:00:55;;;;;;;3.63;1.90;;;9.40;99.90;;;;;;5042689;28;20428;-61
2024/03/16 09:03:21;;;;;;;5.20;1.53;;;9.40;99.90;;;;;;5043742;28;20889;-62
2024/03/16 09:05:46;;;;;;;3.20;1.93;;;9.50;99.90;;;;;;5042612;28;20709;-63
2024/03/16 09:08:12;;;;;;;9.33;1.93;;;9.50;99.90;;;;;;5042069;28;20195;-61
2024/03/16 09:10:38;;;;;;;1.17;1.07;;;9.60;99.90;;;;;;5045999;28;20817;-62
2024/03/16 09:13:03;;;;;;;2.70;1.30;;;9.70;99.90;;;;;;5042599;28;20175;-61
2024/03/16 09:15:29;;;;;;;1.27;1.20;;;9.80;99.90;;;;;;5043671;28;20179;-60
2024/03/16 09:17:55;;;;;;;1.60;1.50;;;9.90;99.90;;;;;;5041204;28;20281;-60
2024/03/16 09:20:21;;;;;;;1.27;1.07;;;10.10;99.90;;;;;;5045150;28;20190;-61
2024/03/16 09:22:48;;;;;;;1.33;1.23;;;10.30;99.90;;;;;;5041685;28;20185;-63
2024/03/16 09:25:14;;;;;;;1.40;1.00;;;10.30;99.90;;;;;;5041306;28;20425;-61
2024/03/16 09:27:39;;;;;;;0.90;0.90;;;10.40;99.90;;;;;;5038447;28;20843;-53
2024/03/16 09:30:06;;;;;;;1.20;1.10;;;10.40;99.90;;;;;;5044083;28;20457;-63
2024/03/16 09:32:32;;;;;;;0.90;0.90;;;10.40;99.90;;;;;;5042458;28;20175;-62
2024/03/16 09:34:57;;;;;;;2.30;1.33;;;10.50;99.90;;;;;;5043079;28;20425;-61
2024/03/16 09:37:23;;;;;;;2.43;1.30;;;10.40;99.90;;;;;;5040511;28;20457;-61
2024/03/16 09:39:49;;;;;;;1.10;1.00;;;10.40;99.90;;;;;;5042712;28;20179;-59
2024/03/16 09:42:14;;;;;;;2.00;1.20;;;10.30;99.90;;;;;;5044262;28;20179;-58
2024/03/16 09:44:41;;;;;;;5.00;2.00;;;10.30;99.90;;;;;;5039684;28;20179;-61
2024/03/16 09:47:13;;;;;;;3.80;1.47;;;10.30;99.90;;;;;;5041340;28;20179;-63
2024/03/16 09:49:41;;;;;;;1.50;0.90;;;10.20;99.90;;;;;;5043229;28;20527;-61
2024/03/16 09:52:10;;;;;;;2.87;1.20;;;10.10;99.90;;;;;;5041083;28;20524;-63
2024/03/16 09:54:39;;;;;;;1.10;1.00;;;10.10;99.90;;;;;;5043977;28;20434;-61
2024/03/16 09:57:09;;;;;;;5.60;1.10;;;10.10;99.90;;;;;;5039442;28;20461;-60
2024/03/16 09:59:35;;;;;;;4.47;1.20;;;10.00;99.90;;;;;;5041679;28;20434;-63
2024/03/16 10:02:03;;;;;;;2.60;1.20;;;10.10;99.90;;;;;;5042951;28;20488;-63
2024/03/16 10:04:29;;;;;;;2.40;1.50;;;10.10;99.90;;;;;;5044463;28;20453;-64
2024/03/16 10:06:55;;;;;;;2.93;1.30;;;10.00;99.90;;;;;;5044062;28;20517;-61
2024/03/16 10:09:23;;;;;;;2.57;1.23;;;10.10;99.90;;;;;;5042648;28;20187;-62
2024/03/16 10:11:48;;;;;;;3.60;1.30;;;10.10;99.90;;;;;;5041186;28;21104;-63
2024/03/16 10:14:14;;;;;;;6.37;2.13;;;10.20;99.90;;;;;;5025826;28;20430;-61
2024/03/16 10:16:40;;;;;;;3.17;1.43;;;10.30;99.90;;;;;;5043487;28;20183;-61
2024/03/16 10:19:09;;;;;;;9.90;4.70;;;10.40;99.90;;;;;;5043630;28;20214;-62
2024/03/16 10:21:35;;;;;;;1.90;1.67;;;10.40;99.90;;;;;;5042074;28;20479;-62
2024/03/16 10:24:01;;;;;;;6.43;1.90;;;10.40;99.90;;;;;;5043170;28;20410;-62
2024/03/16 10:26:30;;;;;;;5.90;1.50;;;10.30;99.90;;;;;;5038968;28;20194;-63
2024/03/16 10:29:01;;;;;;;8.33;1.60;;;10.20;99.90;;;;;;5041750;28;20453;-62
2024/03/16 10:31:29;;;;;;;4.70;1.40;;;10.20;99.90;;;;;;5042282;28;20429;-62
2024/03/16 10:33:57;;;;;;;6.50;1.40;;;10.20;99.90;;;;;;5040838;28;20430;-61
2024/03/16 10:36:25;;;;;;;7.00;1.60;;;10.10;99.90;;;;;;5040663;28;20436;-60
2024/03/16 10:38:53;;;;;;;1.87;1.40;;;10.10;99.90;;;;;;5036608;28;20859;-61
2024/03/16 10:41:19;;;;;;;1.20;1.00;;;10.10;99.90;;;;;;5044263;28;20426;-62
2024/03/16 10:43:45;;;;;;;6.47;1.40;;;10.10;99.90;;;;;;5043247;28;20763;-61
2024/03/16 10:46:15;;;;;;;1.43;1.20;;;10.10;99.90;;;;;;5042173;28;20430;-61
2024/03/16 10:48:44;;;;;;;2.43;1.40;;;10.10;99.90;;;;;;5041594;28;20434;-61
2024/03/16 10:51:15;;;;;;;1.33;0.80;;;10.20;99.90;;;;;;5040898;28;20464;-62
2024/03/16 10:53:41;;;;;;;2.30;1.00;;;10.20;99.90;;;;;;5038250;28;20418;-61
2024/03/16 10:56:07;;;;;;;0.83;0.80;;;10.30;99.90;;;;;;5042658;28;22962;-62
2024/03/16 10:58:33;;;;;;;1.37;0.90;;;10.40;99.90;;;;;;5043424;28;20310;-61
2024/03/16 11:01:07;;;;;;;2.13;0.87;;;10.50;99.90;;;;;;5043685;28;20424;-61
2024/03/16 11:03:36;;;;;;;1.20;1.10;;;10.70;99.90;;;;;;5041890;28;20167;-61
2024/03/16 11:06:11;;;;;;;3.80;0.90;;;11.00;99.90;;;;;;5040991;28;20422;-61
2024/03/16 11:08:46;;;;;;;1.00;0.90;;;11.10;99.90;;;;;;5037852;28;20463;-61
2024/03/16 11:11:19;;;;;;;1.63;1.00;;;11.10;99.90;;;;;;5042973;28;20504;-61
2024/03/16 11:14:07;;;;;;;1.93;1.13;;;11.10;99.90;;;;;;5039557;28;20838;-61
2024/03/16 11:16:34;;;;;;;4.07;0.83;;;11.10;99.90;;;;;;5037640;28;20468;-61
2024/03/16 11:19:09;;;;;;;1.10;0.83;;;11.20;99.90;;;;;;5038804;28;20438;-60
2024/03/16 11:21:38;;;;;;;1.23;0.80;;;11.30;99.90;;;;;;5043266;28;20417;-61
2024/03/16 11:24:13;;;;;;;1.47;0.80;;;11.40;99.90;;;;;;5040179;28;20447;-62
2024/03/16 11:26:40;;;;;;;1.23;0.97;;;11.60;99.90;;;;;;5040482;28;20501;-59
2024/03/16 11:29:09;;;;;;;1.03;1.03;;;11.70;99.90;;;;;;5040107;28;20457;-61
2024/03/16 11:31:39;;;;;;;1.37;1.10;;;11.60;99.90;;;;;;5038411;28;20488;-61
2024/03/16 11:34:08;;;;;;;1.77;1.30;;;11.60;99.90;;;;;;5045768;28;20441;-60
2024/03/16 11:36:38;;;;;;;1.70;1.10;;;11.60;99.90;;;;;;5039799;28;21246;-62
2024/03/16 11:39:13;;;;;;;1.10;1.00;;;11.60;99.90;;;;;;5040468;28;21003;-62
2024/03/16 11:41:43;;;;;;;2.70;1.30;;;11.60;99.90;;;;;;5025707;28;20417;-60
2024/03/16 11:44:13;;;;;;;1.50;1.13;;;11.70;99.90;;;;;;5044963;28;20417;-61
2024/03/16 11:46:46;;;;;;;3.00;1.30;;;11.90;99.90;;;;;;5040962;28;20802;-63
2024/03/16 11:49:16;;;;;;;5.53;1.47;;;12.10;99.90;;;;;;5042536;28;21459;-62
2024/03/16 11:51:49;;;;;;;1.20;1.10;;;12.20;99.90;;;;;;5040550;28;20450;-61
2024/03/16 11:54:16;;;;;;;1.30;1.20;;;12.10;99.90;;;;;;5041958;28;20414;-60
2024/03/16 11:56:43;;;;;;;1.20;1.10;;;12.10;99.90;;;;;;5042332;28;20460;-61
2024/03/16 11:59:14;;;;;;;4.07;1.20;;;12.40;99.90;;;;;;5037702;28;20453;-61
2024/03/16 12:01:42;;;;;;;2.10;1.30;;;12.80;99.90;;;;;;5039485;28;20480;-61
2024/03/16 12:04:10;;;;;;;1.30;1.20;;;12.90;99.90;;;;;;5041541;28;20437;-62
2024/03/16 12:06:37;;;;;;;1.43;1.10;;;12.90;99.90;;;;;;5040637;28;20426;-62
2024/03/16 12:09:03;;;;;;;2.10;1.00;;;12.80;99.90;;;;;;5040997;28;20435;-62
2024/03/16 12:11:32;;;;;;;2.00;1.17;;;12.70;99.60;;;;;;5038796;28;21017;-61
2024/03/16 12:14:24;;;;;;;2.00;1.10;;;12.50;99.90;;;;;;5041048;28;20553;-61
2024/03/16 12:16:49;;;;;;;1.60;1.00;;;12.20;99.90;;;;;;5040278;28;20788;-61
2024/03/16 12:19:16;;;;;;;0.90;0.90;;;12.00;99.90;;;;;;5041173;28;20445;-62
2024/03/16 12:21:46;;;;;;;2.50;1.60;;;11.90;99.90;;;;;;5042351;28;20727;-61
2024/03/16 12:24:13;;;;;;;1.47;1.17;;;11.80;99.90;;;;;;5042562;28;20406;-62
2024/03/16 12:26:49;;;;;;;1.47;0.90;;;11.60;99.90;;;;;;5045831;28;20475;-61
2024/03/16 12:29:20;;;;;;;1.10;1.00;;;11.40;99.90;;;;;;5044907;28;20444;-62
2024/03/16 12:31:53;;;;;;;1.63;1.07;;;11.20;99.90;;;;;;5045864;28;20478;-66
2024/03/16 12:34:19;;;;;;;2.00;1.20;;;11.00;99.90;;;;;;5048397;28;20449;-65
2024/03/16 12:36:44;;;;;;;2.40;1.10;;;10.90;99.90;;;;;;5045450;28;20410;-64
2024/03/16 12:39:14;;;;;;;2.53;1.20;;;10.80;99.90;;;;;;5049355;28;20198;-63
2024/03/16 12:41:41;;;;;;;1.07;0.93;;;10.80;99.90;;;;;;5044426;28;20167;-65
2024/03/16 12:44:07;;;;;;;1.97;1.00;;;10.90;99.90;;;;;;5047532;28;20421;-63
2024/03/16 12:46:33;;;;;;;4.00;1.53;;;11.00;99.90;;;;;;5046486;28;20508;-63
2024/03/16 12:48:59;;;;;;;2.07;1.07;;;11.10;99.90;;;;;;5041852;28;20433;-64
2024/03/16 12:51:25;;;;;;;0.87;0.87;;;11.10;99.90;;;;;;5040545;28;20986;-63
2024/03/16 12:53:50;;;;;;;2.20;1.10;;;11.20;99.90;;;;;;5047449;28;20783;-62
2024/03/16 12:56:16;;;;;;;1.43;0.90;;;11.20;99.90;;;;;;5047525;28;20178;-65
2024/03/16 12:58:42;;;;;;;0.87;0.87;;;11.30;99.90;;;;;;5044059;28;20282;-63